sensor_id;sensor_type;location;lat;lon;timestamp;temperature;humidity
18225;DHT22;9237;48.590;8.854;2023-02-21T00:00:08;1.10;99.90
18225;DHT22;9237;48.590;8.854;2023-02-21T00:02:54;1.00;99.90
18225;DHT22;9237;48.590;8.854;2023-02-21T00:05:38;1.00;99.90
18225;DHT22;9237;48.590;8.854;2023-02-21T00:08:22;0.90;99.90
18225;DHT22;9237;48.590;8.854;2023-02-21T00:11:06;0.90;99.90
18225;DHT22;9237;48.590;8.854;2023-02-21T00:13:50;0.90;99.90
18225;DHT22;9237;48.590;8.854;2023-02-21T00:16:34;0.90;99.90
18225;DHT22;9237;48.590;8.854;2023-02-21T00:19:20;1.10;99.90
18225;DHT22;9237;48.590;8.854;2023-02-21T00:22:04;1.20;99.90
18225;DHT22;9237;48.590;8.854;2023-02-21T00:24:48;1.10;99.90
18225;DHT22;9237;48.590;8.854;2023-02-21T00:27:33;1.00;99.90
18225;DHT22;9237;48.590;8.854;2023-02-21T00:30:17;1.20;99.90
18225;DHT22;9237;48.590;8.854;2023-02-21T00:33:01;1.20;99.90
18225;DHT22;9237;48.590;8.854;2023-02-21T00:35:47;1.10;99.90
18225;DHT22;9237;48.590;8.854;2023-02-21T00:38:31;0.90;99.90
18225;DHT22;9237;48.590;8.854;2023-02-21T00:41:15;0.90;99.90
18225;DHT22;9237;48.590;8.854;2023-02-21T00:43:59;0.90;99.90
18225;DHT22;9237;48.590;8.854;2023-02-21T00:46:44;1.00;99.90
18225;DHT22;9237;48.590;8.854;2023-02-21T00:49:28;2.70;99.90
18225;DHT22;9237;48.590;8.854;2023-02-21T00:52:13;1.00;99.90
18225;DHT22;9237;48.590;8.854;2023-02-21T00:54:57;0.80;99.90
18225;DHT22;9237;48.590;8.854;2023-02-21T00:57:41;0.90;99.90
18225;DHT22;9237;48.590;8.854;2023-02-21T01:00:25;0.80;99.90
18225;DHT22;9237;48.590;8.854;2023-02-21T01:03:11;0.70;99.90
18225;DHT22;9237;48.590;8.854;2023-02-21T01:05:55;0.70;99.90
18225;DHT22;9237;48.590;8.854;2023-02-21T01:08:42;0.90;99.90
18225;DHT22;9237;48.590;8.854;2023-02-21T01:11:26;1.00;99.90
18225;DHT22;9237;48.590;8.854;2023-02-21T01:14:11;1.20;99.90
18225;DHT22;9237;48.590;8.854;2023-02-21T01:16:56;1.20;99.90
18225;DHT22;9237;48.590;8.854;2023-02-21T01:19:40;1.00;99.90
18225;DHT22;9237;48.590;8.854;2023-02-21T01:22:25;0.80;99.90
18225;DHT22;9237;48.590;8.854;2023-02-21T01:25:11;0.70;99.90
18225;DHT22;9237;48.590;8.854;2023-02-21T01:27:55;0.50;99.90
18225;DHT22;9237;48.590;8.854;2023-02-21T01:30:40;0.40;99.90
18225;DHT22;9237;48.590;8.854;2023-02-21T01:33:24;0.40;99.90
18225;DHT22;9237;48.590;8.854;2023-02-21T01:36:09;0.40;99.90
18225;DHT22;9237;48.590;8.854;2023-02-21T01:38:53;0.30;99.90
18225;DHT22;9237;48.590;8.854;2023-02-21T01:41:40;0.20;99.90
18225;DHT22;9237;48.590;8.854;2023-02-21T01:44:32;0.30;99.90
18225;DHT22;9237;48.590;8.854;2023-02-21T01:47:17;0.30;99.90
18225;DHT22;9237;48.590;8.854;2023-02-21T01:50:07;0.30;99.90
18225;DHT22;9237;48.590;8.854;2023-02-21T01:52:52;0.30;99.90
18225;DHT22;9237;48.590;8.854;2023-02-21T01:55:38;0.20;99.90
18225;DHT22;9237;48.590;8.854;2023-02-21T01:58:26;0.20;99.90
18225;DHT22;9237;48.590;8.854;2023-02-21T02:01:22;0.20;99.90
18225;DHT22;9237;48.590;8.854;2023-02-21T02:04:08;0.20;99.90
18225;DHT22;9237;48.590;8.854;2023-02-21T02:06:53;0.10;99.90
18225;DHT22;9237;48.590;8.854;2023-02-21T02:09:37;0.10;99.90
18225;DHT22;9237;48.590;8.854;2023-02-21T02:12:34;0.30;99.90
18225;DHT22;9237;48.590;8.854;2023-02-21T02:15:14;0.30;99.90
18225;DHT22;9237;48.590;8.854;2023-02-21T02:17:56;0.30;99.90
18225;DHT22;9237;48.590;8.854;2023-02-21T02:27:14;0.10;99.90
18225;DHT22;9237;48.590;8.854;2023-02-21T02:29:58;0.00;99.90
18225;DHT22;9237;48.590;8.854;2023-02-21T02:33:03;0.20;99.90
18225;DHT22;9237;48.590;8.854;2023-02-21T02:35:39;0.10;99.90
18225;DHT22;9237;48.590;8.854;2023-02-21T02:38:11;0.10;99.90
18225;DHT22;9237;48.590;8.854;2023-02-21T02:40:49;0.00;99.90
18225;DHT22;9237;48.590;8.854;2023-02-21T02:43:22;-0.10;99.90
18225;DHT22;9237;48.590;8.854;2023-02-21T02:45:54;-0.20;99.90
18225;DHT22;9237;48.590;8.854;2023-02-21T02:48:25;-0.20;99.90
18225;DHT22;9237;48.590;8.854;2023-02-21T02:50:56;-0.30;99.90
18225;DHT22;9237;48.590;8.854;2023-02-21T02:53:26;-0.30;99.90
18225;DHT22;9237;48.590;8.854;2023-02-21T02:55:55;-0.40;99.90
18225;DHT22;9237;48.590;8.854;2023-02-21T02:58:24;-0.40;99.90
18225;DHT22;9237;48.590;8.854;2023-02-21T03:00:59;-0.30;99.90
18225;DHT22;9237;48.590;8.854;2023-02-21T03:03:46;-0.20;99.90
18225;DHT22;9237;48.590;8.854;2023-02-21T03:06:24;-0.20;99.90
18225;DHT22;9237;48.590;8.854;2023-02-21T03:08:58;-0.10;99.90
18225;DHT22;9237;48.590;8.854;2023-02-21T03:11:26;0.00;99.90
18225;DHT22;9237;48.590;8.854;2023-02-21T03:13:58;0.00;99.90
18225;DHT22;9237;48.590;8.854;2023-02-21T03:16:33;-0.20;99.90
18225;DHT22;9237;48.590;8.854;2023-02-21T03:19:03;-0.30;99.90
18225;DHT22;9237;48.590;8.854;2023-02-21T03:21:37;-0.30;99.90
18225;DHT22;9237;48.590;8.854;2023-02-21T03:24:07;-0.40;99.90
18225;DHT22;9237;48.590;8.854;2023-02-21T03:26:38;-0.50;99.90
18225;DHT22;9237;48.590;8.854;2023-02-21T03:29:06;-0.40;99.90
18225;DHT22;9237;48.590;8.854;2023-02-21T03:31:36;-0.40;99.90
18225;DHT22;9237;48.590;8.854;2023-02-21T03:34:06;-0.40;99.90
18225;DHT22;9237;48.590;8.854;2023-02-21T03:36:34;-0.30;99.90
18225;DHT22;9237;48.590;8.854;2023-02-21T03:39:02;-0.40;99.90
18225;DHT22;9237;48.590;8.854;2023-02-21T03:41:29;-0.30;99.90
18225;DHT22;9237;48.590;8.854;2023-02-21T03:43:56;-0.50;99.90
18225;DHT22;9237;48.590;8.854;2023-02-21T03:46:22;-0.50;99.90
18225;DHT22;9237;48.590;8.854;2023-02-21T03:48:49;-0.40;99.90
18225;DHT22;9237;48.590;8.854;2023-02-21T03:51:16;-0.40;99.90
18225;DHT22;9237;48.590;8.854;2023-02-21T03:53:44;-0.40;99.90
18225;DHT22;9237;48.590;8.854;2023-02-21T03:56:11;-0.50;99.90
18225;DHT22;9237;48.590;8.854;2023-02-21T03:58:38;-0.40;99.90
18225;DHT22;9237;48.590;8.854;2023-02-21T04:01:05;-0.40;99.90
18225;DHT22;9237;48.590;8.854;2023-02-21T04:03:31;-0.50;99.90
18225;DHT22;9237;48.590;8.854;2023-02-21T04:05:58;-0.40;99.90
18225;DHT22;9237;48.590;8.854;2023-02-21T04:08:25;-0.40;99.90
18225;DHT22;9237;48.590;8.854;2023-02-21T04:10:53;-0.30;99.90
18225;DHT22;9237;48.590;8.854;2023-02-21T04:13:20;-0.40;99.90
18225;DHT22;9237;48.590;8.854;2023-02-21T04:15:48;-0.30;99.90
18225;DHT22;9237;48.590;8.854;2023-02-21T04:18:15;-0.20;99.90
18225;DHT22;9237;48.590;8.854;2023-02-21T04:20:42;-0.20;99.90
18225;DHT22;9237;48.590;8.854;2023-02-21T04:23:10;-0.30;99.90
18225;DHT22;9237;48.590;8.854;2023-02-21T04:25:38;-0.40;99.90
18225;DHT22;9237;48.590;8.854;2023-02-21T04:28:06;-0.50;99.90
18225;DHT22;9237;48.590;8.854;2023-02-21T04:30:33;-0.50;99.90
18225;DHT22;9237;48.590;8.854;2023-02-21T04:32:59;-0.30;99.90
18225;DHT22;9237;48.590;8.854;2023-02-21T04:35:27;-0.20;99.90
18225;DHT22;9237;48.590;8.854;2023-02-21T04:37:54;0.10;99.90
18225;DHT22;9237;48.590;8.854;2023-02-21T04:40:21;0.20;99.90
18225;DHT22;9237;48.590;8.854;2023-02-21T04:42:48;0.20;99.90
18225;DHT22;9237;48.590;8.854;2023-02-21T04:45:16;-0.10;99.90
18225;DHT22;9237;48.590;8.854;2023-02-21T04:47:43;-0.20;99.90
18225;DHT22;9237;48.590;8.854;2023-02-21T04:50:09;-1.50;99.90
18225;DHT22;9237;48.590;8.854;2023-02-21T04:52:36;-0.40;99.90
18225;DHT22;9237;48.590;8.854;2023-02-21T04:55:05;-0.50;99.90
18225;DHT22;9237;48.590;8.854;2023-02-21T04:57:32;-0.60;99.90
18225;DHT22;9237;48.590;8.854;2023-02-21T04:59:59;-0.60;99.90
18225;DHT22;9237;48.590;8.854;2023-02-21T05:02:27;-0.70;99.90
18225;DHT22;9237;48.590;8.854;2023-02-21T05:04:54;-0.60;99.90
18225;DHT22;9237;48.590;8.854;2023-02-21T05:07:21;-0.60;99.90
18225;DHT22;9237;48.590;8.854;2023-02-21T05:09:48;-0.60;99.90
18225;DHT22;9237;48.590;8.854;2023-02-21T05:12:15;-0.60;99.90
18225;DHT22;9237;48.590;8.854;2023-02-21T05:14:42;-0.60;99.90
18225;DHT22;9237;48.590;8.854;2023-02-21T05:17:08;-0.60;99.90
18225;DHT22;9237;48.590;8.854;2023-02-21T05:19:37;-0.50;99.90
18225;DHT22;9237;48.590;8.854;2023-02-21T05:22:04;-0.50;99.90
18225;DHT22;9237;48.590;8.854;2023-02-21T05:24:32;-0.50;99.90
18225;DHT22;9237;48.590;8.854;2023-02-21T05:26:59;-0.50;99.90
18225;DHT22;9237;48.590;8.854;2023-02-21T05:29:26;-0.60;99.90
18225;DHT22;9237;48.590;8.854;2023-02-21T05:31:54;-0.60;99.90
18225;DHT22;9237;48.590;8.854;2023-02-21T05:34:20;-0.70;99.90
18225;DHT22;9237;48.590;8.854;2023-02-21T05:36:49;-0.70;99.90
18225;DHT22;9237;48.590;8.854;2023-02-21T05:39:15;-0.60;99.90
18225;DHT22;9237;48.590;8.854;2023-02-21T05:41:47;-0.80;99.90
18225;DHT22;9237;48.590;8.854;2023-02-21T05:44:14;-0.80;99.90
18225;DHT22;9237;48.590;8.854;2023-02-21T05:46:41;-0.60;99.90
18225;DHT22;9237;48.590;8.854;2023-02-21T05:49:08;-0.50;99.90
18225;DHT22;9237;48.590;8.854;2023-02-21T05:51:35;-0.50;99.90
18225;DHT22;9237;48.590;8.854;2023-02-21T05:54:05;-0.60;99.90
18225;DHT22;9237;48.590;8.854;2023-02-21T05:56:36;-0.60;99.90
18225;DHT22;9237;48.590;8.854;2023-02-21T05:59:03;-0.50;99.90
18225;DHT22;9237;48.590;8.854;2023-02-21T06:01:30;-0.50;99.90
18225;DHT22;9237;48.590;8.854;2023-02-21T06:03:57;-0.40;99.90
18225;DHT22;9237;48.590;8.854;2023-02-21T06:06:24;-0.50;99.90
18225;DHT22;9237;48.590;8.854;2023-02-21T06:08:51;-0.60;99.90
18225;DHT22;9237;48.590;8.854;2023-02-21T06:11:23;-0.70;99.90
18225;DHT22;9237;48.590;8.854;2023-02-21T06:13:51;-0.80;99.90
18225;DHT22;9237;48.590;8.854;2023-02-21T06:16:18;-0.80;99.90
18225;DHT22;9237;48.590;8.854;2023-02-21T06:18:48;-0.70;99.90
18225;DHT22;9237;48.590;8.854;2023-02-21T06:21:14;-0.60;99.90
18225;DHT22;9237;48.590;8.854;2023-02-21T06:23:41;-0.60;99.90
18225;DHT22;9237;48.590;8.854;2023-02-21T06:26:08;-0.50;99.90
18225;DHT22;9237;48.590;8.854;2023-02-21T06:28:36;-0.50;99.90
18225;DHT22;9237;48.590;8.854;2023-02-21T06:31:04;-0.60;99.90
18225;DHT22;9237;48.590;8.854;2023-02-21T06:33:30;-0.60;99.90
18225;DHT22;9237;48.590;8.854;2023-02-21T06:35:57;-0.50;99.90
18225;DHT22;9237;48.590;8.854;2023-02-21T06:38:24;-0.20;99.90
18225;DHT22;9237;48.590;8.854;2023-02-21T06:40:51;-0.10;99.90
18225;DHT22;9237;48.590;8.854;2023-02-21T06:43:18;-0.20;99.90
18225;DHT22;9237;48.590;8.854;2023-02-21T06:45:46;-0.20;99.90
18225;DHT22;9237;48.590;8.854;2023-02-21T06:48:14;-0.20;99.90
18225;DHT22;9237;48.590;8.854;2023-02-21T06:50:40;-0.10;99.90
18225;DHT22;9237;48.590;8.854;2023-02-21T06:53:07;0.00;99.90
18225;DHT22;9237;48.590;8.854;2023-02-21T06:55:34;0.10;99.90
18225;DHT22;9237;48.590;8.854;2023-02-21T06:58:01;0.10;99.90
18225;DHT22;9237;48.590;8.854;2023-02-21T07:00:27;0.10;99.90
18225;DHT22;9237;48.590;8.854;2023-02-21T07:02:56;0.00;99.90
18225;DHT22;9237;48.590;8.854;2023-02-21T07:05:22;-0.10;99.90
18225;DHT22;9237;48.590;8.854;2023-02-21T07:07:49;-0.10;99.90
18225;DHT22;9237;48.590;8.854;2023-02-21T07:10:16;-0.10;99.90
18225;DHT22;9237;48.590;8.854;2023-02-21T07:12:43;0.00;99.90
18225;DHT22;9237;48.590;8.854;2023-02-21T07:15:10;0.20;99.90
18225;DHT22;9237;48.590;8.854;2023-02-21T07:17:36;0.40;99.90
18225;DHT22;9237;48.590;8.854;2023-02-21T07:20:05;0.80;99.90
18225;DHT22;9237;48.590;8.854;2023-02-21T07:22:32;1.30;99.90
18225;DHT22;9237;48.590;8.854;2023-02-21T07:24:59;1.70;99.90
18225;DHT22;9237;48.590;8.854;2023-02-21T07:27:26;2.10;99.90
18225;DHT22;9237;48.590;8.854;2023-02-21T07:29:53;2.60;99.90
18225;DHT22;9237;48.590;8.854;2023-02-21T07:32:19;3.10;99.90
18225;DHT22;9237;48.590;8.854;2023-02-21T07:34:47;3.60;99.90
18225;DHT22;9237;48.590;8.854;2023-02-21T07:37:15;4.20;99.90
18225;DHT22;9237;48.590;8.854;2023-02-21T07:39:42;5.10;99.90
18225;DHT22;9237;48.590;8.854;2023-02-21T07:42:09;5.10;99.90
18225;DHT22;9237;48.590;8.854;2023-02-21T07:44:35;5.30;99.90
18225;DHT22;9237;48.590;8.854;2023-02-21T07:47:02;5.60;99.90
18225;DHT22;9237;48.590;8.854;2023-02-21T07:49:29;5.70;99.90
18225;DHT22;9237;48.590;8.854;2023-02-21T07:51:56;5.90;99.90
18225;DHT22;9237;48.590;8.854;2023-02-21T07:54:24;6.00;99.90
18225;DHT22;9237;48.590;8.854;2023-02-21T07:56:51;6.30;99.90
18225;DHT22;9237;48.590;8.854;2023-02-21T07:59:17;6.20;99.90
18225;DHT22;9237;48.590;8.854;2023-02-21T08:01:44;6.00;99.90
18225;DHT22;9237;48.590;8.854;2023-02-21T08:04:12;6.30;99.90
18225;DHT22;9237;48.590;8.854;2023-02-21T08:06:39;6.40;99.90
18225;DHT22;9237;48.590;8.854;2023-02-21T08:09:06;6.70;99.90
18225;DHT22;9237;48.590;8.854;2023-02-21T08:11:34;6.90;99.90
18225;DHT22;9237;48.590;8.854;2023-02-21T08:14:02;7.40;99.90
18225;DHT22;9237;48.590;8.854;2023-02-21T08:16:28;8.20;99.90
18225;DHT22;9237;48.590;8.854;2023-02-21T08:18:55;8.70;99.90
18225;DHT22;9237;48.590;8.854;2023-02-21T08:21:22;9.60;99.90
18225;DHT22;9237;48.590;8.854;2023-02-21T08:23:51;9.40;99.90
18225;DHT22;9237;48.590;8.854;2023-02-21T08:26:19;9.90;99.90
18225;DHT22;9237;48.590;8.854;2023-02-21T08:28:47;10.00;99.90
18225;DHT22;9237;48.590;8.854;2023-02-21T08:31:14;10.30;99.90
18225;DHT22;9237;48.590;8.854;2023-02-21T08:33:40;10.10;99.90
18225;DHT22;9237;48.590;8.854;2023-02-21T08:36:07;9.80;99.90
18225;DHT22;9237;48.590;8.854;2023-02-21T08:38:34;9.70;99.90
18225;DHT22;9237;48.590;8.854;2023-02-21T08:41:01;9.50;99.90
18225;DHT22;9237;48.590;8.854;2023-02-21T08:43:28;9.40;99.90
18225;DHT22;9237;48.590;8.854;2023-02-21T08:45:57;9.30;99.90
18225;DHT22;9237;48.590;8.854;2023-02-21T08:48:23;9.30;99.90
18225;DHT22;9237;48.590;8.854;2023-02-21T08:50:50;9.20;99.90
18225;DHT22;9237;48.590;8.854;2023-02-21T08:53:18;9.10;99.90
18225;DHT22;9237;48.590;8.854;2023-02-21T08:55:46;9.10;99.90
18225;DHT22;9237;48.590;8.854;2023-02-21T08:58:12;8.90;99.90
18225;DHT22;9237;48.590;8.854;2023-02-21T09:00:39;9.10;99.90
18225;DHT22;9237;48.590;8.854;2023-02-21T09:03:07;8.60;99.90
18225;DHT22;9237;48.590;8.854;2023-02-21T09:05:34;8.50;99.90
18225;DHT22;9237;48.590;8.854;2023-02-21T09:08:01;8.70;99.90
18225;DHT22;9237;48.590;8.854;2023-02-21T09:10:31;8.70;99.90
18225;DHT22;9237;48.590;8.854;2023-02-21T09:12:59;8.70;99.90
18225;DHT22;9237;48.590;8.854;2023-02-21T09:15:26;8.70;99.90
18225;DHT22;9237;48.590;8.854;2023-02-21T09:17:53;8.70;99.90
18225;DHT22;9237;48.590;8.854;2023-02-21T09:20:23;8.90;99.90
18225;DHT22;9237;48.590;8.854;2023-02-21T09:22:51;8.80;99.90
18225;DHT22;9237;48.590;8.854;2023-02-21T09:25:20;8.80;99.90
18225;DHT22;9237;48.590;8.854;2023-02-21T09:27:48;8.70;99.90
18225;DHT22;9237;48.590;8.854;2023-02-21T09:30:18;8.80;99.90
18225;DHT22;9237;48.590;8.854;2023-02-21T09:32:46;8.80;99.90
18225;DHT22;9237;48.590;8.854;2023-02-21T09:35:13;8.90;99.90
18225;DHT22;9237;48.590;8.854;2023-02-21T09:37:43;9.00;99.90
18225;DHT22;9237;48.590;8.854;2023-02-21T09:40:16;9.30;99.90
18225;DHT22;9237;48.590;8.854;2023-02-21T09:42:48;9.30;99.90
18225;DHT22;9237;48.590;8.854;2023-02-21T09:45:16;9.40;99.90
18225;DHT22;9237;48.590;8.854;2023-02-21T09:47:44;9.30;99.90
18225;DHT22;9237;48.590;8.854;2023-02-21T09:50:16;9.50;99.90
18225;DHT22;9237;48.590;8.854;2023-02-21T09:52:46;9.50;99.90
18225;DHT22;9237;48.590;8.854;2023-02-21T09:55:20;9.60;99.90
18225;DHT22;9237;48.590;8.854;2023-02-21T09:57:50;9.70;99.90
18225;DHT22;9237;48.590;8.854;2023-02-21T10:00:17;9.70;99.90
18225;DHT22;9237;48.590;8.854;2023-02-21T10:02:53;9.80;99.90
18225;DHT22;9237;48.590;8.854;2023-02-21T10:05:32;9.90;99.90
18225;DHT22;9237;48.590;8.854;2023-02-21T10:08:05;9.90;99.90
18225;DHT22;9237;48.590;8.854;2023-02-21T10:10:38;10.10;99.90
18225;DHT22;9237;48.590;8.854;2023-02-21T10:13:21;10.30;99.90
18225;DHT22;9237;48.590;8.854;2023-02-21T10:15:53;10.40;99.90
18225;DHT22;9237;48.590;8.854;2023-02-21T10:18:30;10.50;99.90
18225;DHT22;9237;48.590;8.854;2023-02-21T10:21:00;10.60;99.90
18225;DHT22;9237;48.590;8.854;2023-02-21T10:23:34;10.70;99.90
18225;DHT22;9237;48.590;8.854;2023-02-21T10:26:06;10.90;99.90
18225;DHT22;9237;48.590;8.854;2023-02-21T10:28:35;11.00;99.90
18225;DHT22;9237;48.590;8.854;2023-02-21T10:31:06;11.10;99.90
18225;DHT22;9237;48.590;8.854;2023-02-21T10:33:36;11.20;99.90
18225;DHT22;9237;48.590;8.854;2023-02-21T10:36:10;11.30;99.90
18225;DHT22;9237;48.590;8.854;2023-02-21T10:38:39;11.20;99.90
18225;DHT22;9237;48.590;8.854;2023-02-21T10:41:07;11.20;99.90
18225;DHT22;9237;48.590;8.854;2023-02-21T10:43:38;11.50;99.90
18225;DHT22;9237;48.590;8.854;2023-02-21T10:46:12;11.60;99.90
18225;DHT22;9237;48.590;8.854;2023-02-21T10:48:42;11.80;99.90
18225;DHT22;9237;48.590;8.854;2023-02-21T10:51:11;11.90;99.90
18225;DHT22;9237;48.590;8.854;2023-02-21T10:53:41;11.90;99.90
18225;DHT22;9237;48.590;8.854;2023-02-21T10:56:21;12.00;99.90
18225;DHT22;9237;48.590;8.854;2023-02-21T10:58:49;12.20;99.90
18225;DHT22;9237;48.590;8.854;2023-02-21T11:01:20;12.40;99.90
18225;DHT22;9237;48.590;8.854;2023-02-21T11:03:51;12.50;99.90
18225;DHT22;9237;48.590;8.854;2023-02-21T11:06:26;12.60;99.90
18225;DHT22;9237;48.590;8.854;2023-02-21T11:08:54;12.80;99.90
18225;DHT22;9237;48.590;8.854;2023-02-21T11:11:32;12.80;99.90
18225;DHT22;9237;48.590;8.854;2023-02-21T11:14:18;13.00;99.90
18225;DHT22;9237;48.590;8.854;2023-02-21T11:16:45;13.20;99.90
18225;DHT22;9237;48.590;8.854;2023-02-21T11:19:41;13.40;99.90
18225;DHT22;9237;48.590;8.854;2023-02-21T11:22:09;13.50;99.70
18225;DHT22;9237;48.590;8.854;2023-02-21T11:24:46;13.70;98.80
18225;DHT22;9237;48.590;8.854;2023-02-21T11:27:14;13.80;97.50
18225;DHT22;9237;48.590;8.854;2023-02-21T11:29:43;13.80;97.20
18225;DHT22;9237;48.590;8.854;2023-02-21T11:32:12;14.00;97.00
18225;DHT22;9237;48.590;8.854;2023-02-21T11:34:44;14.00;95.70
18225;DHT22;9237;48.590;8.854;2023-02-21T11:37:14;14.00;95.70
18225;DHT22;9237;48.590;8.854;2023-02-21T11:39:50;14.20;95.50
18225;DHT22;9237;48.590;8.854;2023-02-21T11:42:25;14.30;94.60
18225;DHT22;9237;48.590;8.854;2023-02-21T11:45:09;14.30;93.80
18225;DHT22;9237;48.590;8.854;2023-02-21T11:47:42;14.50;93.90
18225;DHT22;9237;48.590;8.854;2023-02-21T11:50:14;14.60;92.40
18225;DHT22;9237;48.590;8.854;2023-02-21T11:52:45;14.50;92.70
18225;DHT22;9237;48.590;8.854;2023-02-21T11:55:19;14.60;92.80
18225;DHT22;9237;48.590;8.854;2023-02-21T11:57:54;14.80;92.20
18225;DHT22;9237;48.590;8.854;2023-02-21T12:00:28;14.90;91.50
18225;DHT22;9237;48.590;8.854;2023-02-21T12:03:17;15.10;90.70
18225;DHT22;9237;48.590;8.854;2023-02-21T12:05:55;15.10;90.90
18225;DHT22;9237;48.590;8.854;2023-02-21T12:08:36;15.20;91.00
18225;DHT22;9237;48.590;8.854;2023-02-21T12:11:15;15.30;90.30
18225;DHT22;9237;48.590;8.854;2023-02-21T12:13:53;15.40;89.00
18225;DHT22;9237;48.590;8.854;2023-02-21T12:16:29;15.50;90.00
18225;DHT22;9237;48.590;8.854;2023-02-21T12:19:09;15.60;85.10
18225;DHT22;9237;48.590;8.854;2023-02-21T12:21:57;15.60;85.90
18225;DHT22;9237;48.590;8.854;2023-02-21T12:24:39;15.70;85.50
18225;DHT22;9237;48.590;8.854;2023-02-21T12:27:15;15.70;84.20
18225;DHT22;9237;48.590;8.854;2023-02-21T12:32:48;16.00;84.80
18225;DHT22;9237;48.590;8.854;2023-02-21T12:35:33;15.90;80.50
18225;DHT22;9237;48.590;8.854;2023-02-21T12:38:06;15.90;80.60
18225;DHT22;9237;48.590;8.854;2023-02-21T12:40:41;15.90;79.80
18225;DHT22;9237;48.590;8.854;2023-02-21T12:43:27;15.90;80.30
18225;DHT22;9237;48.590;8.854;2023-02-21T12:46:02;16.00;78.70
18225;DHT22;9237;48.590;8.854;2023-02-21T12:48:38;15.90;77.80
18225;DHT22;9237;48.590;8.854;2023-02-21T12:51:08;16.20;78.00
18225;DHT22;9237;48.590;8.854;2023-02-21T12:53:40;15.90;78.40
18225;DHT22;9237;48.590;8.854;2023-02-21T12:56:11;16.00;77.80
18225;DHT22;9237;48.590;8.854;2023-02-21T12:58:47;16.00;78.40
18225;DHT22;9237;48.590;8.854;2023-02-21T13:01:19;16.10;75.40
18225;DHT22;9237;48.590;8.854;2023-02-21T13:03:54;16.10;75.00
18225;DHT22;9237;48.590;8.854;2023-02-21T13:06:25;16.20;76.20
18225;DHT22;9237;48.590;8.854;2023-02-21T13:09:02;16.40;74.80
18225;DHT22;9237;48.590;8.854;2023-02-21T13:11:38;16.20;74.20
18225;DHT22;9237;48.590;8.854;2023-02-21T13:14:10;16.20;74.30
18225;DHT22;9237;48.590;8.854;2023-02-21T13:16:38;16.40;76.70
18225;DHT22;9237;48.590;8.854;2023-02-21T13:19:07;17.00;74.70
18225;DHT22;9237;48.590;8.854;2023-02-21T13:21:49;16.50;74.00
18225;DHT22;9237;48.590;8.854;2023-02-21T13:24:26;16.50;72.90
18225;DHT22;9237;48.590;8.854;2023-02-21T13:29:50;16.30;72.00
18225;DHT22;9237;48.590;8.854;2023-02-21T13:32:18;16.30;71.60
18225;DHT22;9237;48.590;8.854;2023-02-21T13:34:47;16.30;71.90
18225;DHT22;9237;48.590;8.854;2023-02-21T13:37:21;16.40;71.10
18225;DHT22;9237;48.590;8.854;2023-02-21T13:39:52;16.50;70.60
18225;DHT22;9237;48.590;8.854;2023-02-21T13:42:21;16.50;69.80
18225;DHT22;9237;48.590;8.854;2023-02-21T13:44:52;16.30;68.60
18225;DHT22;9237;48.590;8.854;2023-02-21T13:47:21;16.30;68.80
18225;DHT22;9237;48.590;8.854;2023-02-21T13:49:53;16.30;69.40
18225;DHT22;9237;48.590;8.854;2023-02-21T13:55:23;16.60;69.70
18225;DHT22;9237;48.590;8.854;2023-02-21T14:01:40;16.80;67.70
18225;DHT22;9237;48.590;8.854;2023-02-21T14:04:49;17.00;65.30
18225;DHT22;9237;48.590;8.854;2023-02-21T14:07:39;17.00;64.40
18225;DHT22;9237;48.590;8.854;2023-02-21T14:10:38;18.50;62.80
18225;DHT22;9237;48.590;8.854;2023-02-21T14:13:17;21.10;58.40
18225;DHT22;9237;48.590;8.854;2023-02-21T14:15:48;22.90;53.90
18225;DHT22;9237;48.590;8.854;2023-02-21T14:18:25;23.80;50.40
18225;DHT22;9237;48.590;8.854;2023-02-21T14:20:54;24.30;49.70
18225;DHT22;9237;48.590;8.854;2023-02-21T14:23:22;24.40;48.60
18225;DHT22;9237;48.590;8.854;2023-02-21T14:25:59;24.30;47.80
18225;DHT22;9237;48.590;8.854;2023-02-21T14:28:49;23.80;48.30
18225;DHT22;9237;48.590;8.854;2023-02-21T14:31:53;25.30;47.30
18225;DHT22;9237;48.590;8.854;2023-02-21T14:34:29;25.60;46.00
18225;DHT22;9237;48.590;8.854;2023-02-21T14:37:01;25.40;46.10
18225;DHT22;9237;48.590;8.854;2023-02-21T14:39:34;26.10;44.40
18225;DHT22;9237;48.590;8.854;2023-02-21T14:42:25;25.90;44.20
18225;DHT22;9237;48.590;8.854;2023-02-21T14:45:13;26.00;43.60
18225;DHT22;9237;48.590;8.854;2023-02-21T14:48:16;26.00;44.00
18225;DHT22;9237;48.590;8.854;2023-02-21T14:53:56;25.90;43.20
18225;DHT22;9237;48.590;8.854;2023-02-21T14:56:46;26.00;42.80
18225;DHT22;9237;48.590;8.854;2023-02-21T14:59:31;25.40;43.10
18225;DHT22;9237;48.590;8.854;2023-02-21T15:02:16;25.60;42.70
18225;DHT22;9237;48.590;8.854;2023-02-21T15:04:50;25.40;43.20
18225;DHT22;9237;48.590;8.854;2023-02-21T15:07:27;25.50;43.40
18225;DHT22;9237;48.590;8.854;2023-02-21T15:10:14;25.60;42.30
18225;DHT22;9237;48.590;8.854;2023-02-21T15:12:43;25.60;43.00
18225;DHT22;9237;48.590;8.854;2023-02-21T15:15:16;25.60;42.70
18225;DHT22;9237;48.590;8.854;2023-02-21T15:17:44;25.50;42.30
18225;DHT22;9237;48.590;8.854;2023-02-21T15:20:20;25.70;42.30
18225;DHT22;9237;48.590;8.854;2023-02-21T15:22:56;25.80;41.50
18225;DHT22;9237;48.590;8.854;2023-02-21T15:25:25;25.50;42.20
18225;DHT22;9237;48.590;8.854;2023-02-21T15:27:58;25.60;41.90
18225;DHT22;9237;48.590;8.854;2023-02-21T15:30:28;25.50;42.10
18225;DHT22;9237;48.590;8.854;2023-02-21T15:32:58;25.20;42.40
18225;DHT22;9237;48.590;8.854;2023-02-21T15:35:29;25.30;41.70
18225;DHT22;9237;48.590;8.854;2023-02-21T15:38:00;25.30;41.40
18225;DHT22;9237;48.590;8.854;2023-02-21T15:40:28;24.70;42.20
18225;DHT22;9237;48.590;8.854;2023-02-21T15:42:55;24.80;43.40
18225;DHT22;9237;48.590;8.854;2023-02-21T15:45:24;24.20;42.70
18225;DHT22;9237;48.590;8.854;2023-02-21T15:47:53;24.00;43.10
18225;DHT22;9237;48.590;8.854;2023-02-21T15:50:28;23.60;43.50
18225;DHT22;9237;48.590;8.854;2023-02-21T15:53:11;23.50;44.00
18225;DHT22;9237;48.590;8.854;2023-02-21T15:55:39;22.20;46.00
18225;DHT22;9237;48.590;8.854;2023-02-21T15:58:20;21.90;46.90
18225;DHT22;9237;48.590;8.854;2023-02-21T16:00:48;21.80;47.30
18225;DHT22;9237;48.590;8.854;2023-02-21T16:03:33;21.60;48.10
18225;DHT22;9237;48.590;8.854;2023-02-21T16:06:16;21.30;48.80
18225;DHT22;9237;48.590;8.854;2023-02-21T16:09:00;20.20;50.80
18225;DHT22;9237;48.590;8.854;2023-02-21T16:11:41;19.10;53.40
18225;DHT22;9237;48.590;8.854;2023-02-21T16:14:21;18.60;57.30
18225;DHT22;9237;48.590;8.854;2023-02-21T16:16:52;18.00;56.30
18225;DHT22;9237;48.590;8.854;2023-02-21T16:19:21;17.70;61.50
18225;DHT22;9237;48.590;8.854;2023-02-21T16:21:48;17.30;63.20
18225;DHT22;9237;48.590;8.854;2023-02-21T16:24:31;16.70;62.80
18225;DHT22;9237;48.590;8.854;2023-02-21T16:27:07;16.20;64.60
18225;DHT22;9237;48.590;8.854;2023-02-21T16:29:34;15.60;66.20
18225;DHT22;9237;48.590;8.854;2023-02-21T16:32:01;15.20;67.70
18225;DHT22;9237;48.590;8.854;2023-02-21T16:34:31;14.80;69.60
18225;DHT22;9237;48.590;8.854;2023-02-21T16:37:03;14.40;71.90
18225;DHT22;9237;48.590;8.854;2023-02-21T16:39:31;13.90;73.40
18225;DHT22;9237;48.590;8.854;2023-02-21T16:41:58;13.50;75.20
18225;DHT22;9237;48.590;8.854;2023-02-21T16:44:25;13.20;75.30
18225;DHT22;9237;48.590;8.854;2023-02-21T16:46:52;13.10;75.60
18225;DHT22;9237;48.590;8.854;2023-02-21T16:49:19;12.90;75.90
18225;DHT22;9237;48.590;8.854;2023-02-21T16:51:46;12.60;76.80